createdAt,value
2023-03-22T00:01:28.751Z,1.90
2023-03-22T00:03:56.963Z,2.23
2023-03-22T00:06:25.573Z,1.80
2023-03-22T00:08:54.681Z,2.27
2023-03-22T00:11:25.954Z,1.90
2023-03-22T00:13:54.910Z,1.90
2023-03-22T00:16:23.600Z,2.33
2023-03-22T00:18:52.023Z,1.87
2023-03-22T00:21:20.208Z,1.73
2023-03-22T00:23:48.278Z,1.97
2023-03-22T00:26:16.521Z,1.63
2023-03-22T00:28:45.931Z,1.97
2023-03-22T00:31:14.086Z,1.90
2023-03-22T00:33:42.252Z,2.03
2023-03-22T00:36:12.116Z,2.07
2023-03-22T00:38:43.417Z,2.23
2023-03-22T00:41:14.356Z,2.17
2023-03-22T00:43:42.838Z,2.00
2023-03-22T00:46:13.389Z,2.07
2023-03-22T00:48:42.049Z,2.80
2023-03-22T00:51:10.638Z,1.80
2023-03-22T00:53:42.440Z,2.67
2023-03-22T00:56:13.773Z,1.77
2023-03-22T00:58:42.160Z,1.50
2023-03-22T01:01:13.733Z,2.20
2023-03-22T01:03:44.660Z,2.07
2023-03-22T01:06:13.160Z,2.40
2023-03-22T01:08:41.265Z,2.50
2023-03-22T01:11:10.303Z,1.27
2023-03-22T01:13:39.445Z,2.87
2023-03-22T01:16:09.148Z,1.67
2023-03-22T01:18:37.412Z,2.00
2023-03-22T01:21:07.596Z,2.50
2023-03-22T01:23:35.996Z,2.40
2023-03-22T01:26:04.487Z,2.63
2023-03-22T01:28:32.681Z,2.00
2023-03-22T01:31:03.033Z,1.73
2023-03-22T01:33:31.514Z,2.33
2023-03-22T01:36:01.187Z,2.20
2023-03-22T01:38:32.034Z,2.20
2023-03-22T01:41:01.390Z,2.57
2023-03-22T01:43:30.946Z,2.20
2023-03-22T01:46:00.631Z,2.50
2023-03-22T01:48:33.650Z,2.50
2023-03-22T01:51:06.488Z,2.70
2023-03-22T01:53:38.745Z,2.57
2023-03-22T01:56:08.781Z,2.20
2023-03-22T01:58:39.958Z,2.23
2023-03-22T02:01:10.535Z,2.63
2023-03-22T02:03:43.838Z,3.03
2023-03-22T02:06:13.503Z,3.03
2023-03-22T02:08:44.391Z,3.60
2023-03-22T02:11:17.372Z,2.50
2023-03-22T02:13:56.147Z,2.37
2023-03-22T02:16:31.970Z,3.00
2023-03-22T02:19:09.320Z,2.47
2023-03-22T02:21:45.222Z,2.43
2023-03-22T02:24:34.902Z,2.57
2023-03-22T02:27:22.425Z,2.70
2023-03-22T02:29:54.363Z,3.00
2023-03-22T02:32:29.288Z,2.93
2023-03-22T02:35:12.555Z,2.80
2023-03-22T02:37:50.247Z,2.80
2023-03-22T02:40:24.122Z,2.40
2023-03-22T02:42:59.406Z,2.67
2023-03-22T02:45:34.917Z,2.27
2023-03-22T02:48:09.323Z,3.20
2023-03-22T02:50:41.924Z,3.30
2023-03-22T02:53:19.402Z,2.23
2023-03-22T02:55:53.746Z,1.90
2023-03-22T02:58:26.570Z,2.27
2023-03-22T03:00:59.446Z,3.27
2023-03-22T03:03:30.576Z,3.00
2023-03-22T03:06:01.466Z,2.83
2023-03-22T03:08:31.356Z,2.90
2023-03-22T03:11:02.428Z,2.50
2023-03-22T03:13:32.014Z,2.77
2023-03-22T03:16:02.866Z,2.70
2023-03-22T03:18:46.187Z,3.10
2023-03-22T03:21:22.656Z,3.63
2023-03-22T03:23:56.140Z,3.80
2023-03-22T03:26:32.299Z,3.00
2023-03-22T03:29:05.104Z,3.63
2023-03-22T03:31:37.777Z,2.43
2023-03-22T03:34:11.709Z,2.57
2023-03-22T03:36:42.966Z,3.43
2023-03-22T03:39:14.057Z,2.83
2023-03-22T03:41:45.518Z,3.33
2023-03-22T03:44:15.799Z,2.20
2023-03-22T03:46:46.014Z,3.20
2023-03-22T03:49:15.861Z,2.60
2023-03-22T03:51:49.328Z,2.40
2023-03-22T03:54:18.864Z,2.70
2023-03-22T03:56:49.700Z,2.50
2023-03-22T03:59:19.315Z,2.70
2023-03-22T04:01:51.829Z,2.63
2023-03-22T04:04:26.431Z,3.40
2023-03-22T04:06:57.787Z,3.70
2023-03-22T04:09:27.959Z,2.93
2023-03-22T04:11:59.471Z,2.90
2023-03-22T04:14:29.393Z,2.70
2023-03-22T04:16:58.987Z,3.00
2023-03-22T04:19:28.465Z,3.20
2023-03-22T04:21:58.138Z,2.97
2023-03-22T04:24:27.631Z,3.07
2023-03-22T04:26:57.518Z,2.90
2023-03-22T04:29:32.211Z,2.80
2023-03-22T04:32:01.744Z,3.00
2023-03-22T04:34:31.478Z,2.97
2023-03-22T04:37:02.545Z,2.10
2023-03-22T04:39:31.976Z,2.93
2023-03-22T04:42:02.418Z,3.57
2023-03-22T04:44:33.184Z,2.87
2023-03-22T04:47:02.520Z,2.53
2023-03-22T04:49:32.469Z,2.50
2023-03-22T04:52:01.878Z,2.53
2023-03-22T04:54:31.225Z,3.00
2023-03-22T04:57:00.958Z,3.27
2023-03-22T04:59:30.648Z,2.80
2023-03-22T05:02:01.920Z,2.70
2023-03-22T05:04:31.947Z,3.37
2023-03-22T05:07:01.510Z,3.63
2023-03-22T05:09:30.848Z,2.90
2023-03-22T05:12:00.176Z,2.90
2023-03-22T05:14:32.614Z,3.00
2023-03-22T05:17:03.823Z,4.60
2023-03-22T05:19:33.227Z,4.07
2023-03-22T05:22:02.626Z,3.63
2023-03-22T05:24:32.369Z,5.30
2023-03-22T05:27:03.866Z,5.33
2023-03-22T05:29:37.124Z,8.30
2023-03-22T05:32:08.013Z,6.30
2023-03-22T05:34:37.691Z,5.10
2023-03-22T05:37:07.114Z,5.63
2023-03-22T05:39:36.738Z,5.23
2023-03-22T05:42:06.151Z,4.40
2023-03-22T05:44:35.525Z,4.80
2023-03-22T05:47:06.609Z,4.00
2023-03-22T05:49:37.326Z,3.53
2023-03-22T05:52:07.223Z,3.70
2023-03-22T05:54:36.606Z,3.87
2023-03-22T05:57:06.067Z,3.73
2023-03-22T05:59:35.688Z,4.23
2023-03-22T06:02:05.092Z,3.77
2023-03-22T06:04:34.481Z,4.10
2023-03-22T06:07:05.189Z,3.37
2023-03-22T06:09:34.606Z,3.33
2023-03-22T06:12:03.956Z,3.40
2023-03-22T06:14:33.368Z,4.50
2023-03-22T06:17:02.743Z,3.50
2023-03-22T06:19:32.092Z,3.83
2023-03-22T06:22:01.472Z,3.37
2023-03-22T06:24:32.176Z,3.27
2023-03-22T06:27:01.622Z,3.67
2023-03-22T06:29:31.002Z,4.07
2023-03-22T06:32:00.635Z,3.30
2023-03-22T06:34:30.060Z,3.70
2023-03-22T06:36:59.393Z,4.13
2023-03-22T06:39:28.908Z,3.70
2023-03-22T06:41:59.689Z,3.00
2023-03-22T06:44:29.229Z,3.43
2023-03-22T06:46:58.577Z,3.93
2023-03-22T06:49:28.076Z,3.60
2023-03-22T06:51:57.479Z,3.80
2023-03-22T06:54:26.963Z,3.57
2023-03-22T06:56:56.524Z,4.27
2023-03-22T06:59:27.355Z,3.57
2023-03-22T07:01:57.062Z,3.43
2023-03-22T07:04:27.891Z,3.73
2023-03-22T07:06:57.437Z,4.03
2023-03-22T07:09:27.365Z,3.90
2023-03-22T07:11:57.023Z,3.10
2023-03-22T07:14:28.425Z,2.93
2023-03-22T07:16:59.967Z,2.10
2023-03-22T07:19:28.779Z,2.30
2023-03-22T07:21:57.255Z,2.63
2023-03-22T07:24:25.624Z,1.90
2023-03-22T07:26:53.960Z,1.90
2023-03-22T07:29:22.307Z,1.73
2023-03-22T07:31:52.122Z,2.30
2023-03-22T07:34:20.691Z,1.93
2023-03-22T07:36:49.068Z,2.17
2023-03-22T07:39:17.465Z,1.73
2023-03-22T07:41:45.819Z,1.93
2023-03-22T07:44:18.049Z,1.70
2023-03-22T07:46:46.866Z,1.70
2023-03-22T07:49:16.678Z,1.97
2023-03-22T07:51:45.022Z,1.87
2023-03-22T07:54:20.196Z,1.73
2023-03-22T07:56:59.056Z,1.83
2023-03-22T07:59:27.545Z,2.00
2023-03-22T08:01:55.955Z,1.83
2023-03-22T08:04:26.147Z,1.73
2023-03-22T08:06:58.595Z,1.80
2023-03-22T08:09:27.234Z,1.37
2023-03-22T08:11:55.589Z,2.03
2023-03-22T08:14:34.036Z,1.50
2023-03-22T08:17:04.573Z,1.30
2023-03-22T08:19:34.260Z,1.50
2023-03-22T08:22:03.305Z,1.67
2023-03-22T08:24:31.716Z,2.17
2023-03-22T08:27:00.241Z,1.60
2023-03-22T08:29:29.074Z,1.30
2023-03-22T08:32:02.053Z,1.67
2023-03-22T08:34:31.303Z,1.73
2023-03-22T08:37:01.084Z,1.20
2023-03-22T08:39:29.395Z,1.40
2023-03-22T08:41:57.780Z,1.70
2023-03-22T08:44:26.293Z,2.57
2023-03-22T08:46:54.954Z,1.40
2023-03-22T08:49:23.378Z,1.00
2023-03-22T08:51:51.727Z,1.00
2023-03-22T08:54:21.671Z,1.10
2023-03-22T08:56:50.378Z,1.40
2023-03-22T08:59:18.756Z,1.23
2023-03-22T09:01:47.287Z,1.20
2023-03-22T09:04:15.909Z,1.00
2023-03-22T09:06:45.471Z,1.50
2023-03-22T09:09:14.099Z,1.43
2023-03-22T09:11:44.813Z,1.40
2023-03-22T09:14:13.252Z,1.33
2023-03-22T09:16:41.620Z,1.17
2023-03-22T09:19:10.001Z,1.40
2023-03-22T09:21:38.400Z,1.33
2023-03-22T09:24:08.655Z,1.77
2023-03-22T09:26:37.645Z,1.23
2023-03-22T09:29:07.393Z,1.27
2023-03-22T09:31:35.847Z,1.00
2023-03-22T09:34:04.252Z,1.60
2023-03-22T09:36:34.323Z,1.87
2023-03-22T09:39:05.458Z,1.17
2023-03-22T09:41:36.505Z,0.97
2023-03-22T09:44:06.725Z,0.90
2023-03-22T09:46:38.884Z,0.90
2023-03-22T09:49:09.308Z,1.13
2023-03-22T09:51:40.559Z,1.50
2023-03-22T09:54:13.044Z,1.37
2023-03-22T09:56:42.020Z,1.00
2023-03-22T09:59:14.757Z,1.00
2023-03-22T10:01:47.991Z,1.47
2023-03-22T10:04:40.866Z,1.10
2023-03-22T10:07:12.892Z,1.67
2023-03-22T10:09:45.820Z,1.27
2023-03-22T10:12:18.179Z,1.23
2023-03-22T10:14:50.250Z,1.07
2023-03-22T10:17:21.776Z,0.63
2023-03-22T10:19:54.010Z,1.03
2023-03-22T10:22:25.388Z,1.33
2023-03-22T10:24:54.687Z,0.97
2023-03-22T10:27:24.664Z,1.07
2023-03-22T10:29:53.905Z,0.80
2023-03-22T10:32:26.372Z,0.87
2023-03-22T10:34:54.693Z,0.87
2023-03-22T10:37:25.438Z,0.60
2023-03-22T10:39:55.656Z,0.90
2023-03-22T10:42:25.656Z,1.00
2023-03-22T10:44:55.776Z,0.73
2023-03-22T10:47:31.856Z,0.93
2023-03-22T10:50:02.042Z,0.80
2023-03-22T10:52:37.026Z,0.70
2023-03-22T10:55:06.411Z,1.13
2023-03-22T10:57:34.963Z,1.37
2023-03-22T11:00:08.234Z,0.70
2023-03-22T11:02:40.855Z,0.80
2023-03-22T11:05:09.629Z,0.60
2023-03-22T11:07:39.098Z,0.77
2023-03-22T11:10:15.040Z,0.77
2023-03-22T11:12:45.377Z,0.67
2023-03-22T11:15:22.315Z,0.90
2023-03-22T11:17:52.358Z,0.70
2023-03-22T11:20:21.247Z,0.77
2023-03-22T11:22:50.616Z,1.10
2023-03-22T11:25:22.480Z,0.73
2023-03-22T11:27:53.065Z,0.90
2023-03-22T11:30:22.583Z,1.00
2023-03-22T11:33:01.239Z,0.60
2023-03-22T11:35:31.264Z,0.73
2023-03-22T11:38:02.379Z,0.83
2023-03-22T11:40:32.497Z,1.13
2023-03-22T11:43:12.396Z,0.73
2023-03-22T11:45:43.347Z,0.80
2023-03-22T11:48:16.096Z,0.70
2023-03-22T11:50:45.466Z,0.80
2023-03-22T11:53:15.498Z,0.90
2023-03-22T11:55:44.258Z,0.73
2023-03-22T11:58:24.105Z,0.70
2023-03-22T12:00:53.982Z,0.60
2023-03-22T12:03:26.144Z,0.70
2023-03-22T12:05:54.900Z,0.80
2023-03-22T12:08:25.702Z,1.07
2023-03-22T12:10:57.526Z,0.90
2023-03-22T12:13:28.944Z,0.80
2023-03-22T12:16:00.132Z,0.60
2023-03-22T12:18:31.956Z,0.60
2023-03-22T12:21:01.116Z,0.80
2023-03-22T12:23:38.695Z,0.73
2023-03-22T12:26:12.614Z,0.90
2023-03-22T12:28:43.466Z,0.60
2023-03-22T12:31:21.399Z,1.13
2023-03-22T12:33:53.379Z,1.03
2023-03-22T12:36:23.416Z,1.47
2023-03-22T12:38:53.176Z,0.90
2023-03-22T12:41:25.829Z,1.37
2023-03-22T12:43:56.105Z,1.03
2023-03-22T12:46:28.277Z,0.80
2023-03-22T12:49:02.838Z,1.00
2023-03-22T12:51:31.335Z,0.80
2023-03-22T12:54:00.779Z,0.83
2023-03-22T12:56:32.831Z,0.80
2023-03-22T12:59:07.444Z,0.80
2023-03-22T13:01:46.463Z,0.87
2023-03-22T13:04:31.326Z,1.00
2023-03-22T13:07:00.711Z,0.70
2023-03-22T13:09:40.585Z,1.10
2023-03-22T13:12:28.811Z,0.90
2023-03-22T13:14:58.819Z,1.00
2023-03-22T13:17:40.867Z,1.03
2023-03-22T13:20:30.873Z,0.80
2023-03-22T13:23:04.120Z,0.77
2023-03-22T13:25:35.892Z,0.70
2023-03-22T13:28:06.794Z,0.73
2023-03-22T13:30:37.358Z,0.90
2023-03-22T13:33:15.857Z,0.70
2023-03-22T13:35:48.891Z,0.70
2023-03-22T13:38:22.941Z,0.60
2023-03-22T13:40:55.834Z,0.90
2023-03-22T13:43:35.353Z,0.93
2023-03-22T13:46:28.598Z,0.53
2023-03-22T13:49:37.644Z,0.80
2023-03-22T13:52:09.629Z,0.93
2023-03-22T13:54:44.107Z,0.63
2023-03-22T13:57:19.550Z,0.80
2023-03-22T14:00:11.287Z,0.67
2023-03-22T14:02:42.748Z,0.60
2023-03-22T14:05:22.879Z,0.80
2023-03-22T14:07:54.011Z,0.70
2023-03-22T14:10:24.308Z,0.80
2023-03-22T14:12:53.822Z,0.87
2023-03-22T14:15:24.777Z,0.63
2023-03-22T14:17:55.566Z,0.77
2023-03-22T14:20:26.295Z,0.87
